Meteo Giornale » Osservazioni meteo Italia » Pratica Di Mare

ore: 11:55 - Osservazioni Meteo Pratica Di Mare
Lat. 41° 39' N Lon. 12° 27' E Alt. 6 metri s.l.m.

poco_nuvoloso Europe/Rome

27 °C

Poco Nuvoloso

Temp. 24 Ore

22 °C

29 °C

Sud

16.7 Km/h

Dew point 15 °C

Umidità 47 %

Visibilità  10 Km

Il sole sorge alle ore 05:56

Il sole tramonta alle ore 20:36

Data e Ora Cielo e Fenomeni T °C DP °C Um. % Pres. hPa Vis. km Vento km/h
Oggi h: 11:55 poco_nuvoloso Poco Nuvoloso 27 15 47 1004 10 S 16.7
Oggi h: 10:55 nuvoloso Nuvoloso 27 17 54 1004 10 S/SO 16.7
Oggi h: 09:55 nuvoloso Nuvoloso 26 18 61 1004 10 S/SO 14.8
Oggi h: 08:55 nuvoloso Nuvoloso 26 19 65 1004 10 O/SO 9.3
Oggi h: 07:55 nuvoloso Nuvoloso 25 18 65 1004 10 O 11.1
Oggi h: 06:55 poco_nuvoloso Poco Nuvoloso 24 19 73 1004 10 O 14.8
Oggi h: 05:55 nuvoloso Nuvoloso 24 19 73 1005 10 O 16.7
Oggi h: 04:55 nuvoloso Nuvoloso 22 17 73 1005 10 O 20.3
Oggi h: 03:55 nuvoloso Nuvoloso 24 21 83 1006 10 N 3.7
Oggi h: 02:55 nuvoloso Nuvoloso 25 21 78 1006 10 N/NE 22.2
Oggi h: 01:55 nuvoloso Nuvoloso 25 21 78 1006 10 O 22.2
Oggi h: 00:55 nuvoloso Nuvoloso 25 21 78 1006 10 O 22.2
Ieri h: 23:55 nuvoloso Nuvoloso 24 20 78 1006 10 O 27.8
Ieri h: 22:55 nuvoloso Nuvoloso 25 20 73 1007 10 O 25.9
Ieri h: 21:55 nuvoloso Nuvoloso 25 20 73 1007 10 O 24
Ieri h: 20:55 nuvoloso Nuvoloso 25 20 73 1006 10 O 22.2
Ieri h: 19:55 nuvoloso Nuvoloso 26 20 69 1006 10 O 20.3
Ieri h: 18:55 nuvoloso Nuvoloso 27 20 65 1006 10 O 20.3
Ieri h: 17:55 poco_nuvoloso Poco Nuvoloso 28 20 61 1006 10 O 14.8
Ieri h: 16:55 poco_nuvoloso Poco Nuvoloso 29 20 58 1007 10 O/SO 18.5
Ieri h: 15:55 poco_nuvoloso Poco Nuvoloso 29 19 54 1007 10 O/SO 20.3
Ieri h: 14:55 poco_nuvoloso Poco Nuvoloso 29 16 45 1008 10 SO 22.2
Ieri h: 13:55 nuvoloso Nuvoloso 28 17 51 1008 10 O/SO 22.2
Ieri h: 12:55 poco_nuvoloso Poco Nuvoloso 29 18 51 1009 10 SO 27.8